createdAt,value
2023-04-18T00:02:05.557Z,23.50
2023-04-18T00:04:33.079Z,25.20
2023-04-18T00:07:00.865Z,26.42
2023-04-18T00:09:29.640Z,27.60
2023-04-18T00:11:57.363Z,25.27
2023-04-18T00:14:24.727Z,23.80
2023-04-18T00:16:52.452Z,24.60
2023-04-18T00:19:19.849Z,24.73
2023-04-18T00:21:47.492Z,29.35
2023-04-18T00:24:15.031Z,30.60
2023-04-18T00:26:44.312Z,29.67
2023-04-18T00:29:11.787Z,28.05
2023-04-18T00:31:39.669Z,30.38
2023-04-18T00:34:07.080Z,24.67
2023-04-18T00:36:34.871Z,25.42
2023-04-18T00:39:02.158Z,27.55
2023-04-18T00:41:30.572Z,26.05
2023-04-18T00:43:59.692Z,26.65
2023-04-18T00:46:27.436Z,24.35
2023-04-18T00:48:54.871Z,26.45
2023-04-18T00:51:22.592Z,25.70
2023-04-18T00:53:50.452Z,35.17
2023-04-18T00:56:18.206Z,31.48
2023-04-18T00:58:45.681Z,30.23
2023-04-18T01:01:17.108Z,28.85
2023-04-18T01:06:12.179Z,28.40
2023-04-18T01:08:39.830Z,30.85
2023-04-18T01:11:07.700Z,31.25
2023-04-18T01:13:35.232Z,27.20
2023-04-18T01:16:04.901Z,27.00
2023-04-18T01:18:33.713Z,28.50
2023-04-18T01:21:02.513Z,30.30
2023-04-18T01:23:30.164Z,25.83
2023-04-18T01:25:59.570Z,27.17
2023-04-18T01:28:26.811Z,26.23
2023-04-18T01:30:56.858Z,27.02
2023-04-18T01:33:24.267Z,29.30
2023-04-18T01:36:19.345Z,25.23
2023-04-18T01:38:46.518Z,30.27
2023-04-18T01:41:15.581Z,32.10
2023-04-18T01:43:42.975Z,26.73
2023-04-18T01:46:10.618Z,26.48
2023-04-18T01:48:38.023Z,34.45
2023-04-18T01:51:05.864Z,25.45
2023-04-18T01:53:33.279Z,26.25
2023-04-18T01:56:00.957Z,25.88
2023-04-18T01:58:29.664Z,29.90
2023-04-18T02:00:57.436Z,30.27
2023-04-18T02:03:25.270Z,31.77
2023-04-18T02:05:53.163Z,30.48
2023-04-18T02:08:20.591Z,30.35
2023-04-18T02:10:48.309Z,29.20
2023-04-18T02:13:15.669Z,31.92
2023-04-18T02:15:45.437Z,30.02
2023-04-18T02:18:12.935Z,30.83
2023-04-18T02:20:40.534Z,34.97
2023-04-18T02:23:07.890Z,28.90
2023-04-18T02:25:35.965Z,30.52
2023-04-18T02:28:03.477Z,29.85
2023-04-18T02:30:31.459Z,33.22
2023-04-18T02:33:00.276Z,27.88
2023-04-18T02:35:29.688Z,25.92
2023-04-18T02:37:56.972Z,27.98
2023-04-18T02:40:24.522Z,28.92
2023-04-18T02:42:51.898Z,30.52
2023-04-18T02:45:19.693Z,30.98
2023-04-18T02:47:54.287Z,31.95
2023-04-18T02:50:25.282Z,32.75
2023-04-18T02:52:52.679Z,30.27
2023-04-18T02:55:20.506Z,32.25
2023-04-18T02:57:47.694Z,30.85
2023-04-18T03:00:15.663Z,31.90
2023-04-18T03:02:43.069Z,30.50
2023-04-18T03:05:12.526Z,32.15
2023-04-18T03:07:41.436Z,30.05
2023-04-18T03:10:09.930Z,27.15
2023-04-18T03:12:37.277Z,27.65
2023-04-18T03:15:06.589Z,34.50
2023-04-18T03:17:34.177Z,27.95
2023-04-18T03:20:01.974Z,31.10
2023-04-18T03:22:29.237Z,28.50
2023-04-18T03:24:58.470Z,30.15
2023-04-18T03:27:25.798Z,23.95
2023-04-18T03:29:53.871Z,27.33
2023-04-18T03:32:21.500Z,26.95
2023-04-18T03:34:49.398Z,29.13
2023-04-18T03:37:16.870Z,26.20
2023-04-18T03:39:44.515Z,25.75
2023-04-18T03:42:13.307Z,29.30
2023-04-18T03:44:40.912Z,27.38
2023-04-18T03:47:08.297Z,29.30
2023-04-18T03:49:35.893Z,29.92
2023-04-18T03:52:03.181Z,26.55
2023-04-18T03:54:30.690Z,28.23
2023-04-18T03:56:58.118Z,28.63
2023-04-18T03:59:27.930Z,28.13
2023-04-18T04:01:55.420Z,32.47
2023-04-18T04:04:23.310Z,26.42
2023-04-18T04:06:51.178Z,28.20
2023-04-18T04:09:19.073Z,27.08
2023-04-18T04:11:46.572Z,26.48
2023-04-18T04:14:14.533Z,26.02
2023-04-18T04:16:43.479Z,28.55
2023-04-18T04:19:11.310Z,27.48
2023-04-18T04:21:41.180Z,25.52
2023-04-18T04:24:08.885Z,24.65
2023-04-18T04:26:36.163Z,26.60
2023-04-18T04:29:06.409Z,25.73
2023-04-18T04:31:33.757Z,24.48
2023-04-18T04:34:02.995Z,28.17
2023-04-18T04:36:30.396Z,27.08
2023-04-18T04:38:58.042Z,25.67
2023-04-18T04:41:25.529Z,29.13
2023-04-18T04:43:53.155Z,27.80
2023-04-18T04:46:20.818Z,27.42
2023-04-18T04:48:48.712Z,25.45
2023-04-18T04:51:17.328Z,31.35
2023-04-18T04:53:44.985Z,25.90
2023-04-18T04:56:12.222Z,27.35
2023-04-18T04:58:40.036Z,24.65
2023-04-18T05:01:07.288Z,26.35
2023-04-18T05:03:35.389Z,30.67
2023-04-18T05:06:03.491Z,28.90
2023-04-18T05:08:32.434Z,29.20
2023-04-18T05:10:59.708Z,26.15
2023-04-18T05:13:27.356Z,26.42
2023-04-18T05:15:54.757Z,29.48
2023-04-18T05:18:22.526Z,24.98
2023-04-18T05:20:49.866Z,25.88
2023-04-18T05:23:17.456Z,26.08
2023-04-18T05:25:46.285Z,25.98
2023-04-18T05:28:13.888Z,29.27
2023-04-18T05:30:41.288Z,30.13
2023-04-18T05:33:09.055Z,27.33
2023-04-18T05:35:36.611Z,24.85
2023-04-18T05:38:04.331Z,25.13
2023-04-18T05:40:31.606Z,27.05
2023-04-18T05:43:00.649Z,26.00
2023-04-18T05:45:28.016Z,27.98
2023-04-18T05:47:58.640Z,27.42
2023-04-18T05:50:26.038Z,28.02
2023-04-18T05:52:53.744Z,26.23
2023-04-18T05:55:21.251Z,27.33
2023-04-18T05:57:48.908Z,25.17
2023-04-18T06:00:18.675Z,28.75
2023-04-18T06:02:46.849Z,25.73
2023-04-18T06:05:14.513Z,23.63
2023-04-18T06:07:42.771Z,23.77
2023-04-18T06:10:10.173Z,24.27
2023-04-18T06:12:37.815Z,25.60
2023-04-18T06:15:06.725Z,19.95
2023-04-18T06:17:35.943Z,22.30
2023-04-18T06:20:03.802Z,25.60
2023-04-18T06:22:31.395Z,26.85
2023-04-18T06:24:58.719Z,24.02
2023-04-18T06:27:31.387Z,24.08
2023-04-18T06:29:59.156Z,24.48
2023-04-18T06:32:26.834Z,27.20
2023-04-18T06:34:55.502Z,23.65
2023-04-18T06:37:26.270Z,24.10
2023-04-18T06:39:53.474Z,21.85
2023-04-18T06:42:22.579Z,24.83
2023-04-18T06:44:50.237Z,21.13
2023-04-18T06:47:18.130Z,24.60
2023-04-18T06:49:45.479Z,21.50
2023-04-18T06:52:14.716Z,20.67
2023-04-18T06:54:41.967Z,22.85
2023-04-18T06:57:09.815Z,21.08
2023-04-18T06:59:37.273Z,23.13
2023-04-18T07:02:05.213Z,20.13
2023-04-18T07:04:35.115Z,24.23
2023-04-18T07:07:03.092Z,25.05
2023-04-18T07:09:31.794Z,23.00
2023-04-18T07:11:59.521Z,22.35
2023-04-18T07:14:26.970Z,19.88
2023-04-18T07:16:54.803Z,23.30
2023-04-18T07:19:22.176Z,23.00
2023-04-18T07:21:50.041Z,24.70
2023-04-18T07:24:17.378Z,22.17
2023-04-18T07:26:46.525Z,22.00
2023-04-18T07:29:13.708Z,24.70
2023-04-18T07:31:41.664Z,24.35
2023-04-18T07:34:08.995Z,23.48
2023-04-18T07:36:36.924Z,24.42
2023-04-18T07:39:04.226Z,26.27
2023-04-18T07:41:31.874Z,27.25
2023-04-18T07:44:00.685Z,28.92
2023-04-18T07:46:28.757Z,29.85
2023-04-18T07:48:56.114Z,27.63
2023-04-18T07:51:23.613Z,24.33
2023-04-18T07:53:50.948Z,25.70
2023-04-18T07:56:19.273Z,22.58
2023-04-18T07:58:46.611Z,19.98
2023-04-18T08:01:15.813Z,24.27
2023-04-18T08:03:43.196Z,23.05
2023-04-18T08:06:11.000Z,18.58
2023-04-18T08:08:38.310Z,23.60
2023-04-18T08:11:06.283Z,22.45
2023-04-18T08:13:33.535Z,25.40
2023-04-18T08:16:01.105Z,25.40
2023-04-18T08:18:29.782Z,22.92
2023-04-18T08:20:57.640Z,25.27
2023-04-18T08:23:24.995Z,21.73
2023-04-18T08:25:52.644Z,25.63
2023-04-18T08:28:19.966Z,28.00
2023-04-18T08:30:47.731Z,23.75
2023-04-18T08:33:15.191Z,22.50
2023-04-18T08:35:44.206Z,23.75
2023-04-18T08:38:11.501Z,24.77
2023-04-18T08:40:39.117Z,20.27
2023-04-18T08:43:07.672Z,21.90
2023-04-18T08:45:37.689Z,21.65
2023-04-18T08:48:05.513Z,24.13
2023-04-18T08:50:33.510Z,20.52
2023-04-18T08:53:02.361Z,23.95
2023-04-18T08:55:30.011Z,23.23
2023-04-18T08:57:57.386Z,21.50
2023-04-18T09:00:25.353Z,24.30
2023-04-18T09:02:53.886Z,21.05
2023-04-18T09:05:21.992Z,20.70
2023-04-18T09:07:50.578Z,19.13
2023-04-18T09:10:28.583Z,20.60
2023-04-18T09:12:57.104Z,23.45
2023-04-18T09:15:26.275Z,20.73
2023-04-18T09:17:54.646Z,22.45
2023-04-18T09:20:30.939Z,24.83
2023-04-18T09:22:58.225Z,21.30
2023-04-18T09:25:29.434Z,22.90
2023-04-18T09:27:56.929Z,20.95
2023-04-18T09:30:37.091Z,21.10
2023-04-18T09:33:06.548Z,20.55
2023-04-18T09:35:34.209Z,23.42
2023-04-18T09:38:01.943Z,21.85
2023-04-18T09:40:31.802Z,23.80
2023-04-18T09:42:59.240Z,19.65
2023-04-18T09:45:27.502Z,21.75
2023-04-18T09:47:55.232Z,20.58
2023-04-18T09:50:23.102Z,21.00
2023-04-18T09:52:50.506Z,24.48
2023-04-18T09:55:19.497Z,22.55
2023-04-18T09:57:48.937Z,23.55
2023-04-18T10:00:22.349Z,25.73
2023-04-18T10:02:57.862Z,28.48
2023-04-18T10:05:27.350Z,19.98
2023-04-18T10:07:55.225Z,23.75
2023-04-18T10:10:23.627Z,22.40
2023-04-18T10:12:54.862Z,20.92
2023-04-18T10:15:24.426Z,23.95
2023-04-18T10:18:03.373Z,21.02
2023-04-18T10:20:33.638Z,22.55
2023-04-18T10:23:41.814Z,24.92
2023-04-18T10:26:11.972Z,24.08
2023-04-18T10:28:53.963Z,21.90
2023-04-18T10:31:22.899Z,24.23
2023-04-18T10:34:03.969Z,27.92
2023-04-18T10:36:34.780Z,23.48
2023-04-18T10:39:19.491Z,27.95
2023-04-18T10:41:50.752Z,25.63
2023-04-18T10:44:23.361Z,25.75
2023-04-18T10:47:20.180Z,20.92
2023-04-18T10:50:00.737Z,21.33
2023-04-18T10:52:28.607Z,24.23
2023-04-18T10:55:05.663Z,20.15
2023-04-18T10:57:41.790Z,20.50
2023-04-18T11:00:16.536Z,20.42
2023-04-18T11:02:52.785Z,22.10
2023-04-18T11:05:22.942Z,20.58
2023-04-18T11:07:53.484Z,25.00
2023-04-18T11:10:23.468Z,24.83
2023-04-18T11:12:52.596Z,27.50
2023-04-18T11:15:23.592Z,20.00
2023-04-18T11:17:59.764Z,21.65
2023-04-18T11:20:27.765Z,23.73
2023-04-18T11:22:57.021Z,23.08
2023-04-18T11:25:26.644Z,22.10
2023-04-18T11:27:54.835Z,22.80
2023-04-18T11:30:23.714Z,25.08
2023-04-18T11:32:53.361Z,22.33
2023-04-18T11:35:20.609Z,27.00
2023-04-18T11:37:49.926Z,26.52
2023-04-18T11:40:36.394Z,26.00
2023-04-18T11:43:27.106Z,27.20
2023-04-18T11:46:37.492Z,24.83
2023-04-18T11:51:35.013Z,24.92
2023-04-18T11:54:04.305Z,21.48
2023-04-18T11:56:33.501Z,26.40
2023-04-18T11:59:09.008Z,25.00
2023-04-18T12:01:38.325Z,27.38
2023-04-18T12:04:07.296Z,30.50
2023-04-18T12:06:47.951Z,26.92
2023-04-18T12:09:15.850Z,26.52
2023-04-18T12:11:43.922Z,26.77
2023-04-18T12:14:19.902Z,27.27
2023-04-18T12:16:51.045Z,27.35
2023-04-18T12:19:18.823Z,26.10
2023-04-18T12:21:59.681Z,25.75
2023-04-18T12:24:27.342Z,33.20
2023-04-18T12:26:55.578Z,27.23
2023-04-18T12:29:22.870Z,31.75
2023-04-18T12:31:52.175Z,30.95
2023-04-18T12:34:19.660Z,29.88
2023-04-18T12:36:47.361Z,29.33
2023-04-18T12:39:14.739Z,30.73
2023-04-18T12:41:43.457Z,30.25
2023-04-18T12:44:10.824Z,29.88
2023-04-18T12:46:38.569Z,30.27
2023-04-18T12:49:08.356Z,31.38
2023-04-18T12:51:35.988Z,31.52
2023-04-18T12:54:03.480Z,32.70
2023-04-18T12:56:31.112Z,36.33
2023-04-18T12:58:58.609Z,31.50
2023-04-18T13:01:26.651Z,34.67
2023-04-18T13:04:08.371Z,30.40
2023-04-18T13:06:41.506Z,35.05
2023-04-18T13:09:08.916Z,36.83
2023-04-18T13:11:36.657Z,31.58
2023-04-18T13:14:04.007Z,35.40
2023-04-18T13:16:31.707Z,31.70
2023-04-18T13:18:59.088Z,33.00
2023-04-18T13:21:26.690Z,34.38
2023-04-18T13:23:55.633Z,34.22
2023-04-18T13:26:23.532Z,32.28
2023-04-18T13:28:50.863Z,28.38
2023-04-18T13:31:18.910Z,36.63
2023-04-18T13:33:46.138Z,30.67
2023-04-18T13:36:13.996Z,30.30
2023-04-18T13:38:41.847Z,29.70
2023-04-18T13:41:13.238Z,26.90
2023-04-18T13:43:40.891Z,29.38
2023-04-18T13:46:08.564Z,30.60
2023-04-18T13:48:35.997Z,30.38
2023-04-18T13:51:03.759Z,31.00
2023-04-18T13:53:31.302Z,33.50
2023-04-18T13:55:59.119Z,28.77
2023-04-18T13:58:28.073Z,27.60
2023-04-18T14:00:55.778Z,31.17
2023-04-18T14:03:26.372Z,29.98
2023-04-18T14:05:54.197Z,25.40
2023-04-18T14:08:21.828Z,28.90
2023-04-18T14:10:49.908Z,29.83
2023-04-18T14:13:17.372Z,25.85
2023-04-18T14:15:46.409Z,29.33
2023-04-18T14:18:13.832Z,31.88
2023-04-18T14:20:41.514Z,30.17
2023-04-18T14:23:08.815Z,29.50
2023-04-18T14:25:36.690Z,30.27
2023-04-18T14:28:06.221Z,28.40
2023-04-18T14:30:33.805Z,28.88
2023-04-18T14:33:03.308Z,27.25
2023-04-18T14:35:30.889Z,29.23
2023-04-18T14:37:58.427Z,28.75
2023-04-18T14:40:27.166Z,28.35
2023-04-18T14:42:54.760Z,26.23
2023-04-18T14:45:22.467Z,25.70
2023-04-18T14:47:49.737Z,28.50
2023-04-18T14:50:19.141Z,26.83
2023-04-18T14:52:46.488Z,24.67
2023-04-18T14:55:14.160Z,24.10
2023-04-18T14:57:41.480Z,26.30
2023-04-18T15:00:09.924Z,25.17
2023-04-18T15:02:37.512Z,29.10
2023-04-18T15:05:06.302Z,25.75
2023-04-18T15:07:35.265Z,26.17
2023-04-18T15:10:02.914Z,23.10
2023-04-18T15:12:30.130Z,26.02
2023-04-18T15:14:59.490Z,25.55
2023-04-18T15:17:26.865Z,25.42
2023-04-18T15:19:54.615Z,22.95
2023-04-18T15:22:22.110Z,25.40
2023-04-18T15:24:51.139Z,22.92
2023-04-18T15:27:18.405Z,21.15
2023-04-18T15:29:46.169Z,26.00
2023-04-18T15:32:13.598Z,23.65
2023-04-18T15:34:41.364Z,24.98
2023-04-18T15:37:08.828Z,24.58
2023-04-18T15:39:36.637Z,24.55
2023-04-18T15:42:06.338Z,22.45
2023-04-18T15:44:34.000Z,25.40
2023-04-18T15:47:01.545Z,23.42
2023-04-18T15:49:29.115Z,22.42
2023-04-18T15:51:56.456Z,24.30
2023-04-18T15:54:24.097Z,22.58
2023-04-18T15:56:51.431Z,23.60
2023-04-18T15:59:20.506Z,21.65
2023-04-18T16:01:47.815Z,24.98
2023-04-18T16:04:16.230Z,25.05
2023-04-18T16:06:43.689Z,22.90
2023-04-18T16:09:11.255Z,23.52
2023-04-18T16:11:38.488Z,23.33
2023-04-18T16:14:06.187Z,27.50
2023-04-18T16:16:34.948Z,25.13
2023-04-18T16:19:02.526Z,21.85
2023-04-18T16:21:29.901Z,21.83
2023-04-18T16:23:58.523Z,22.73
2023-04-18T16:26:25.977Z,23.08
2023-04-18T16:28:53.497Z,23.05
2023-04-18T16:31:20.843Z,22.05
2023-04-18T16:33:50.053Z,28.10
2023-04-18T16:36:17.403Z,23.98
2023-04-18T16:38:45.178Z,23.10
2023-04-18T16:41:12.573Z,21.52
2023-04-18T16:43:40.309Z,23.33
2023-04-18T16:46:11.374Z,22.10
2023-04-18T16:48:39.149Z,23.98
2023-04-18T16:51:09.187Z,24.10
2023-04-18T16:53:36.906Z,26.05
2023-04-18T16:56:04.636Z,27.42
2023-04-18T16:58:32.259Z,24.25
2023-04-18T17:01:02.230Z,26.88
2023-04-18T17:03:30.473Z,26.50
2023-04-18T17:05:58.013Z,26.65
2023-04-18T17:08:27.223Z,26.83
2023-04-18T17:10:55.060Z,23.48
2023-04-18T17:13:22.786Z,30.40
2023-04-18T17:15:50.520Z,26.17
2023-04-18T17:18:18.626Z,25.77
2023-04-18T17:20:45.854Z,29.77
2023-04-18T17:23:13.608Z,25.13
2023-04-18T17:25:42.267Z,25.70
2023-04-18T17:28:10.297Z,27.55
2023-04-18T17:30:40.066Z,26.80
2023-04-18T17:33:08.273Z,27.20
2023-04-18T17:35:35.603Z,24.95
2023-04-18T17:38:03.656Z,27.25
2023-04-18T17:40:31.837Z,27.67
2023-04-18T17:43:01.192Z,26.10
2023-04-18T17:45:28.440Z,27.83
2023-04-18T17:47:56.197Z,27.60
2023-04-18T17:50:23.701Z,25.67
2023-04-18T17:52:51.561Z,29.48
2023-04-18T17:55:19.041Z,28.40
2023-04-18T17:57:46.881Z,29.17
2023-04-18T18:00:16.778Z,30.70
2023-04-18T18:02:44.816Z,26.13
2023-04-18T18:05:12.219Z,26.90
2023-04-18T18:07:40.378Z,27.83
2023-04-18T18:10:09.643Z,30.88
2023-04-18T18:12:37.300Z,27.52
2023-04-18T18:15:05.791Z,31.20
2023-04-18T18:17:35.303Z,24.25
2023-04-18T18:20:02.691Z,28.20
2023-04-18T18:22:30.551Z,30.35
2023-04-18T18:24:58.099Z,30.17
2023-04-18T18:27:26.138Z,31.83
2023-04-18T18:29:53.547Z,29.55
2023-04-18T18:32:21.164Z,26.10
2023-04-18T18:34:49.940Z,32.40
2023-04-18T18:37:17.662Z,31.75
2023-04-18T18:39:44.910Z,28.65
2023-04-18T18:42:12.662Z,29.73
2023-04-18T18:44:39.934Z,28.55
2023-04-18T18:47:07.908Z,28.63
2023-04-18T18:49:35.864Z,28.58
2023-04-18T18:52:05.319Z,27.80
2023-04-18T18:54:32.701Z,27.48
2023-04-18T18:57:00.787Z,28.83
2023-04-18T18:59:28.044Z,28.90
2023-04-18T19:01:56.406Z,29.60
2023-04-18T19:04:25.141Z,30.80
2023-04-18T19:06:53.306Z,30.10
2023-04-18T19:09:22.468Z,31.35
2023-04-18T19:11:50.080Z,32.72
2023-04-18T19:14:17.414Z,29.02
2023-04-18T19:16:45.251Z,29.30
2023-04-18T19:19:13.238Z,30.35
2023-04-18T19:21:41.459Z,29.98
2023-04-18T19:24:08.992Z,31.98
2023-04-18T19:26:38.320Z,28.98
2023-04-18T19:29:06.605Z,29.33
2023-04-18T19:31:34.679Z,28.05
2023-04-18T19:34:02.193Z,31.15
2023-04-18T19:36:30.079Z,28.45
2023-04-18T19:38:57.361Z,31.48
2023-04-18T19:41:28.544Z,34.60
2023-04-18T19:43:57.748Z,32.10
2023-04-18T19:46:25.570Z,29.35
2023-04-18T19:48:53.181Z,32.15
2023-04-18T19:51:20.977Z,30.23
2023-04-18T19:53:48.578Z,31.73
2023-04-18T19:56:16.196Z,29.80
2023-04-18T19:58:43.684Z,29.52
2023-04-18T20:01:14.067Z,30.42
2023-04-18T20:03:44.581Z,32.17
2023-04-18T20:06:13.113Z,28.20
2023-04-18T20:08:41.414Z,29.40
2023-04-18T20:11:10.447Z,34.42
2023-04-18T20:13:38.000Z,27.98
2023-04-18T20:16:07.478Z,30.85
2023-04-18T20:18:38.057Z,27.45
2023-04-18T20:21:07.132Z,30.50
2023-04-18T20:23:34.650Z,29.92
2023-04-18T20:26:02.735Z,28.70
2023-04-18T20:28:30.475Z,27.65
2023-04-18T20:30:58.228Z,31.38
2023-04-18T20:33:25.885Z,29.85
2023-04-18T20:35:55.384Z,30.38
2023-04-18T20:38:23.665Z,32.10
2023-04-18T20:40:53.083Z,25.77
2023-04-18T20:43:20.591Z,31.83
2023-04-18T20:45:48.750Z,29.30
2023-04-18T20:48:16.155Z,26.50
2023-04-18T20:50:43.830Z,26.08
2023-04-18T20:53:12.579Z,26.60
2023-04-18T20:55:40.147Z,27.60
2023-04-18T20:58:07.646Z,28.17
2023-04-18T21:00:35.500Z,29.58
2023-04-18T21:03:03.090Z,26.73
2023-04-18T21:05:32.554Z,29.67
2023-04-18T21:07:59.845Z,26.98
2023-04-18T21:10:29.419Z,30.15
2023-04-18T21:12:56.722Z,25.52
2023-04-18T21:15:24.771Z,32.67
2023-04-18T21:17:52.333Z,27.75
2023-04-18T21:20:20.431Z,30.15
2023-04-18T21:22:47.672Z,30.15
2023-04-18T21:25:15.569Z,27.65
2023-04-18T21:27:44.256Z,28.80
2023-04-18T21:30:12.973Z,24.00
2023-04-18T21:32:40.514Z,28.27
2023-04-18T21:35:09.134Z,25.25
2023-04-18T21:37:36.581Z,24.88
2023-04-18T21:40:05.568Z,27.20
2023-04-18T21:42:33.014Z,23.08
2023-04-18T21:45:02.188Z,24.50
2023-04-18T21:47:29.899Z,26.05
2023-04-18T21:49:57.794Z,22.40
2023-04-18T21:52:25.285Z,22.02
2023-04-18T21:54:53.197Z,21.75
2023-04-18T21:57:20.549Z,21.25
2023-04-18T21:59:48.744Z,21.88
2023-04-18T22:02:17.600Z,21.67
2023-04-18T22:04:45.359Z,24.92
2023-04-18T22:07:12.752Z,21.55
2023-04-18T22:09:40.550Z,23.00
2023-04-18T22:12:08.262Z,23.52
2023-04-18T22:14:36.177Z,23.42
2023-04-18T22:17:03.512Z,21.67
2023-04-18T22:19:33.084Z,23.88
2023-04-18T22:22:00.607Z,21.63
2023-04-18T22:24:28.385Z,21.75
2023-04-18T22:26:55.952Z,22.10
2023-04-18T22:29:23.630Z,23.38
2023-04-18T22:31:51.101Z,21.95
2023-04-18T22:34:19.169Z,20.23
2023-04-18T22:36:48.019Z,19.98
2023-04-18T22:39:16.051Z,20.23
2023-04-18T22:41:43.242Z,20.30
2023-04-18T22:44:10.850Z,24.02
2023-04-18T22:46:38.573Z,19.60
2023-04-18T22:49:06.545Z,22.05
2023-04-18T22:51:33.958Z,20.45
2023-04-18T22:54:03.387Z,17.70
2023-04-18T22:56:30.785Z,20.30
2023-04-18T22:58:58.537Z,20.77
2023-04-18T23:01:25.819Z,22.20
2023-04-18T23:03:53.967Z,19.70
2023-04-18T23:06:21.496Z,19.02
2023-04-18T23:08:50.143Z,18.25
2023-04-18T23:11:18.852Z,18.00
2023-04-18T23:13:46.629Z,20.08
2023-04-18T23:16:14.435Z,19.90
2023-04-18T23:18:47.797Z,18.48
2023-04-18T23:21:21.095Z,19.80
2023-04-18T23:23:54.556Z,20.27
2023-04-18T23:26:24.524Z,20.75
2023-04-18T23:28:52.552Z,18.85
2023-04-18T23:31:19.891Z,19.45
2023-04-18T23:33:47.619Z,20.02
2023-04-18T23:36:14.857Z,20.10
2023-04-18T23:38:42.793Z,23.42
2023-04-18T23:41:10.100Z,21.27
2023-04-18T23:43:39.443Z,19.48
2023-04-18T23:46:06.742Z,20.40
2023-04-18T23:48:34.353Z,20.45
2023-04-18T23:51:01.642Z,21.23
2023-04-18T23:53:29.340Z,21.73
2023-04-18T23:55:56.745Z,23.90
2023-04-18T23:58:24.700Z,18.75
